Airfield :
LOGIN :

Register | Disclaimer

   EN    FR    IT 

 










Legend :    VFR   Marginal VFR   IFR   Intensive IFR   Very Intensive IFR
Visi :
Ceiling :
>= 8 km
>= 3000ft
5 to 8 km
1000 to 3000 ft
1500m to 5 km
500 to 1000 ft
800 to 1500m
200 to 500 ft
< 800m
< 200 ft
Symbols :   Thunderstorms  Fog  Heavy snow  Heavy precipitations  Wind > 20 kt
SIGMETs :     Misc.  Thunderstorms  Icing  Turbulence  Mountain Waves  Volcanic Ashes







- Airport Elevation : 26 ft
- IATA code : BIA
- Download approach charts


LFKB - Bastia

CURRENT METAR :
  • 220200Z AUTO 16006KT 110V190 CAVOK 16/06 Q1011 NOSIG

EXPIRED METARs :
  • 220130Z AUTO 13004KT CAVOK 15/06 Q1011 NOSIG
  • 220100Z AUTO 13005KT CAVOK 15/06 Q1012 NOSIG
  • 220030Z AUTO 14007KT CAVOK 16/06 Q1012 NOSIG
  • 220000Z AUTO 13005KT CAVOK 16/05 Q1012 NOSIG
  • 212330Z AUTO 14006KT 100V170 CAVOK 17/05 Q1013 NOSIG

TAF TAF LFKB
Valid from the 21 at 21:00 until the 22 at 21:00 UTC


212000Z 2121/2221 14010KT CAVOK TX21/2212Z TN12/2204Z
TEMPO 2209/2214 13015G25KT
BECMG 2214/2216 BKN025
TEMPO 2216/2221 3000 SHRA BKN015 FEW025TCU
ATIS : +33 4 95 59 19 40
No reported NOTAMs for that airfield.
1 SIGMET reported for the Marseille FIR (LFMM) :
 
Severe turbulence
LFMM SIGMET 9 VALID 220000/220400 LFPW
LFMM MARSEILLE FIR/UIR SEV TURB FCST WI N4430 E00700 - N4400 E00700 - N4315 E00945 - N4115 E00945 - N4115 E00800 - N4245 E00800 - N4245 E00545 - N4430 E00700 SFC/FL080 STNR NC=



MET'MAP, your aeronautical weather chart ! - Copyright ORBIFLY December 2007 - Disclaimer

ORBIFLY MET'MAP TEAM :

Programming & Development : Alexandra Zaïnal
Concept & Development : Baudouin d'Aumeries
Co-Development & Prog : Marc-Olivier Méhu
Technical & hardware support : Manuel Goepfert

Contact : metmap@orbifly.com




SOURCES & CREDITS :

   NOAA